KL   EN   DA


ASIAQ
Weather Now GREENLAND SURVEY
Sorting:
Along the coast
Alphabetical
Location Updated [WGT/WGST] Temperature [°C] Wind [m/s] Air pressure [hPa] Relative humidity [%] Precipitation [mm]
PresentWind chillSpeedMax
Qaanaaq30.11 16:00-23,2n/a1,3 ⇗2,11013560,0
Kitsissut30.11 16:00-19,5-29,95,7 ⇖8,8101380n/a
Kitsissorsuit30.11 16:00-14,0-26,812,9 ⇘15,4100677n/a
Upernavik30.11 16:00-12,9-19,73,6 ⇙4,699371n/a
Qaarsut30.11 16:00-7,6-12,63,0 ⇒5,0993670,0
Nuussuaq30.11 16:00-6,4-11,83,6 ⇓6,7100268n/a
Qeqertarsuaq30.11 16:00-6,3-13,76,5 ⇓9,81001650,0
Ilulissat30.11 16:00-7,9-13,33,3 ⇙4,2998570,0
Qasigiannguit30.11 16:00-10,0-16,74,1 ⇙6,6999600,0
Aasiaat30.11 16:00-4,9-9,83,4 ⇙5,11000720,0
Attu30.11 16:00n/an/a14,4 ⇘19,01002n/an/a
Kangerlussuaq30.11 16:00-12,0-19,14,1 ⇙4,899786n/a
Sisimiut30.11 16:00-4,8-12,78,4 ⇘13,7100275n/a
Maniitsoq30.11 16:00-4,2n/a0,5 ⇘1,599673n/a
Sioralik30.11 16:00-5,2-12,46,7 ⇙8,299971n/a
Kapisillit30.11 16:00-9,4-12,51,5 ⇐3,0989590,0
Nuuk Airport30.11 16:00-5,6-13,98,6 ⇓10,9987690,0
Nuuk Skibakke/Sisorarfiit30.11 16:00-8,0-17,39,1 ⇓11,995579n/a
Nuuk City30.11 16:00-5,3-14,310,6 ⇓14,6988600,2
Ukiivik30.11 16:00-2,0-11,416,0 ⇘18,599265n/a
Paamiut30.11 16:00-2,9-10,38,4 ⇘10,799163n/a
Narsarsuaq30.11 16:002,8-2,78,1 ⇐10,9985370,0
Narsaq30.11 16:00-0,5n/a0,4 ⇓1,898699n/a
Nunarsuit30.11 16:00-0,7-10,721,6 ⇘28,398970n/a
Qaqortoq30.11 16:00-0,6-5,64,9 ⇓9,1988930,1
Nanortalik30.11 16:00-0,6-3,52,3 ⇓4,5989981,3
Angisoq30.11 16:000,0-5,86,7 ⇘25,2988100n/a
Prins Christian Sund30.11 16:00-1,4-8,48,6 ⇘22,997985n/a
Ikermiuarsuk30.11 16:00-1,7-11,719,6 ⇓25,798579n/a
Ikermit30.11 16:00-5,5n/an/an/a99096n/a
Kulusuk30.11 16:00-3,5-11,18,6 ⇙14,299578-0,1
Tasiilaq30.11 16:00-3,9-9,03,9 ⇓8,0994790,0
Aputiteeq30.11 16:00-9,2-18,17,7 ⇙9,3100971n/a
Ittoqqortoormiit30.11 16:00-9,3-14,83,1 ⇙8,2100529n/a
Nerlerit Inaat30.11 16:00-16,2n/a1,2 ⇓2,9101451n/a
Daneborg30.11 16:00-21,0-29,63,6 ⇓4,1101457n/a
Danmarkshavn30.11 16:00-20,7-27,92,7 ⇓16,4101352n/a
Henrik Krøyer Holme30.11 16:00-20,4-26,42,1 ⇓3,1101061n/a
Station Nord30.11 16:00-29,0-38,53,1 ⇗3,6100863n/a
Kap Morris Jesup30.11 16:00-22,7-37,310,3 ⇒12,9101172n/a

Advanced version
Data source - Operated by - Disclaimer